sensor_id;sensor_type;location;lat;lon;timestamp;pressure;altitude;pressure_sealevel;temperature;humidity
62548;BME280;48602;45.192;5.722;2023-08-06T00:00:28;98988.03;;;19.81;51.57
62548;BME280;48602;45.192;5.722;2023-08-06T00:02:53;98988.56;;;19.75;51.50
62548;BME280;48602;45.192;5.722;2023-08-06T00:05:18;98988.91;;;19.70;51.80
62548;BME280;48602;45.192;5.722;2023-08-06T00:07:46;98979.53;;;19.65;52.19
62548;BME280;48602;45.192;5.722;2023-08-06T00:10:12;98987.97;;;19.60;52.00
62548;BME280;48602;45.192;5.722;2023-08-06T00:12:37;98984.66;;;19.57;52.12
62548;BME280;48602;45.192;5.722;2023-08-06T00:15:03;98980.66;;;19.51;52.38
62548;BME280;48602;45.192;5.722;2023-08-06T00:17:28;98981.81;;;19.47;52.00
62548;BME280;48602;45.192;5.722;2023-08-06T00:19:54;98976.84;;;19.42;51.35
62548;BME280;48602;45.192;5.722;2023-08-06T00:22:19;98985.00;;;19.41;51.09
62548;BME280;48602;45.192;5.722;2023-08-06T00:24:44;98982.56;;;19.38;51.52
62548;BME280;48602;45.192;5.722;2023-08-06T00:27:10;98982.66;;;19.36;51.36
62548;BME280;48602;45.192;5.722;2023-08-06T00:29:35;98980.22;;;19.33;51.68
62548;BME280;48602;45.192;5.722;2023-08-06T00:32:01;98977.69;;;19.32;51.36
62548;BME280;48602;45.192;5.722;2023-08-06T00:34:26;98972.56;;;19.29;51.77
62548;BME280;48602;45.192;5.722;2023-08-06T00:36:51;98979.88;;;19.27;51.16
62548;BME280;48602;45.192;5.722;2023-08-06T00:39:18;98978.28;;;19.24;51.43
62548;BME280;48602;45.192;5.722;2023-08-06T00:41:44;98975.63;;;19.24;52.04
62548;BME280;48602;45.192;5.722;2023-08-06T00:44:09;98987.28;;;19.23;52.00
62548;BME280;48602;45.192;5.722;2023-08-06T00:46:34;98991.16;;;19.19;53.17
62548;BME280;48602;45.192;5.722;2023-08-06T00:49:00;98988.59;;;19.17;53.27
62548;BME280;48602;45.192;5.722;2023-08-06T00:51:25;98993.94;;;19.17;53.08
62548;BME280;48602;45.192;5.722;2023-08-06T00:53:52;98977.66;;;19.21;52.53
62548;BME280;48602;45.192;5.722;2023-08-06T00:56:19;98970.16;;;19.26;52.48
62548;BME280;48602;45.192;5.722;2023-08-06T00:58:45;98968.19;;;19.28;52.26
62548;BME280;48602;45.192;5.722;2023-08-06T01:01:10;98977.06;;;19.28;52.49
62548;BME280;48602;45.192;5.722;2023-08-06T01:03:36;98979.72;;;19.28;52.17
62548;BME280;48602;45.192;5.722;2023-08-06T01:06:01;98983.88;;;19.32;52.71
62548;BME280;48602;45.192;5.722;2023-08-06T01:13:50;98982.56;;;19.38;52.57
62548;BME280;48602;45.192;5.722;2023-08-06T01:16:21;98984.25;;;19.39;53.04
62548;BME280;48602;45.192;5.722;2023-08-06T01:18:47;98989.72;;;19.37;53.59
62548;BME280;48602;45.192;5.722;2023-08-06T01:21:18;98993.38;;;19.36;54.40
62548;BME280;48602;45.192;5.722;2023-08-06T01:23:44;98988.25;;;19.33;54.41
62548;BME280;48602;45.192;5.722;2023-08-06T01:29:18;98987.75;;;19.28;54.18
62548;BME280;48602;45.192;5.722;2023-08-06T01:31:48;98987.91;;;19.27;54.12
62548;BME280;48602;45.192;5.722;2023-08-06T01:34:28;99001.25;;;19.27;54.40
62548;BME280;48602;45.192;5.722;2023-08-06T01:36:56;98997.84;;;19.25;54.61
62548;BME280;48602;45.192;5.722;2023-08-06T01:39:22;98993.47;;;19.24;55.04
62548;BME280;48602;45.192;5.722;2023-08-06T01:41:48;99000.63;;;19.23;54.89
62548;BME280;48602;45.192;5.722;2023-08-06T01:44:14;98990.06;;;19.22;54.87
62548;BME280;48602;45.192;5.722;2023-08-06T01:46:39;98996.25;;;19.22;55.09
62548;BME280;48602;45.192;5.722;2023-08-06T01:49:05;98994.56;;;19.21;55.37
62548;BME280;48602;45.192;5.722;2023-08-06T01:51:30;98999.16;;;19.19;55.31
62548;BME280;48602;45.192;5.722;2023-08-06T01:53:55;98997.22;;;19.21;55.02
62548;BME280;48602;45.192;5.722;2023-08-06T01:56:21;98995.41;;;19.22;55.33
62548;BME280;48602;45.192;5.722;2023-08-06T01:58:46;98997.97;;;19.23;55.51
62548;BME280;48602;45.192;5.722;2023-08-06T02:01:11;98997.22;;;19.21;55.04
62548;BME280;48602;45.192;5.722;2023-08-06T02:03:37;98988.59;;;19.17;54.52
62548;BME280;48602;45.192;5.722;2023-08-06T02:06:02;98998.31;;;19.18;54.66
62548;BME280;48602;45.192;5.722;2023-08-06T02:08:28;99008.16;;;19.18;54.74
62548;BME280;48602;45.192;5.722;2023-08-06T02:10:53;98996.59;;;19.17;54.59
62548;BME280;48602;45.192;5.722;2023-08-06T02:13:19;99002.06;;;19.16;55.13
62548;BME280;48602;45.192;5.722;2023-08-06T02:15:45;98995.88;;;19.15;55.19
62548;BME280;48602;45.192;5.722;2023-08-06T02:18:14;98994.06;;;19.16;54.42
62548;BME280;48602;45.192;5.722;2023-08-06T02:20:42;98994.06;;;19.16;54.18
62548;BME280;48602;45.192;5.722;2023-08-06T02:23:08;98992.22;;;19.16;53.81
62548;BME280;48602;45.192;5.722;2023-08-06T02:25:33;98992.34;;;19.15;54.03
62548;BME280;48602;45.192;5.722;2023-08-06T02:27:59;98991.38;;;19.16;54.00
62548;BME280;48602;45.192;5.722;2023-08-06T02:30:24;99000.25;;;19.16;54.84
62548;BME280;48602;45.192;5.722;2023-08-06T02:32:50;98999.50;;;19.14;54.90
62548;BME280;48602;45.192;5.722;2023-08-06T02:35:15;98998.78;;;19.12;55.13
62548;BME280;48602;45.192;5.722;2023-08-06T02:37:41;99009.59;;;19.11;55.64
62548;BME280;48602;45.192;5.722;2023-08-06T02:40:06;99004.63;;;19.06;55.58
62548;BME280;48602;45.192;5.722;2023-08-06T02:42:32;98996.72;;;19.05;55.25
62548;BME280;48602;45.192;5.722;2023-08-06T02:44:57;98994.03;;;19.05;55.53
62548;BME280;48602;45.192;5.722;2023-08-06T02:47:23;98990.75;;;19.01;54.98
62548;BME280;48602;45.192;5.722;2023-08-06T02:49:48;98997.06;;;19.00;55.75
62548;BME280;48602;45.192;5.722;2023-08-06T02:52:14;99004.34;;;18.98;54.94
62548;BME280;48602;45.192;5.722;2023-08-06T02:54:39;98991.94;;;18.97;54.67
62548;BME280;48602;45.192;5.722;2023-08-06T02:57:05;99004.34;;;18.98;55.00
62548;BME280;48602;45.192;5.722;2023-08-06T02:59:31;99001.78;;;18.97;55.00
62548;BME280;48602;45.192;5.722;2023-08-06T03:01:56;99006.16;;;18.98;54.06
62548;BME280;48602;45.192;5.722;2023-08-06T03:04:22;99008.72;;;18.99;54.25
62548;BME280;48602;45.192;5.722;2023-08-06T03:06:49;99000.59;;;19.01;53.65
62548;BME280;48602;45.192;5.722;2023-08-06T03:09:15;98995.13;;;19.02;53.96
62548;BME280;48602;45.192;5.722;2023-08-06T03:11:40;98989.66;;;19.04;52.96
62548;BME280;48602;45.192;5.722;2023-08-06T03:14:06;98996.59;;;19.06;53.41
62548;BME280;48602;45.192;5.722;2023-08-06T03:16:31;98991.13;;;19.08;52.66
62548;BME280;48602;45.192;5.722;2023-08-06T03:18:56;99000.00;;;19.08;52.81
62548;BME280;48602;45.192;5.722;2023-08-06T03:21:22;98998.88;;;19.11;52.10
62548;BME280;48602;45.192;5.722;2023-08-06T03:23:47;99010.19;;;19.14;52.80
62548;BME280;48602;45.192;5.722;2023-08-06T03:26:14;99000.72;;;19.10;52.49
62548;BME280;48602;45.192;5.722;2023-08-06T03:28:39;99005.25;;;19.10;52.63
62548;BME280;48602;45.192;5.722;2023-08-06T03:31:04;99001.72;;;19.09;52.47
62548;BME280;48602;45.192;5.722;2023-08-06T03:33:30;98995.50;;;19.09;52.50
62548;BME280;48602;45.192;5.722;2023-08-06T03:35:56;99002.69;;;19.08;52.84
62548;BME280;48602;45.192;5.722;2023-08-06T03:38:22;99004.38;;;19.09;52.62
62548;BME280;48602;45.192;5.722;2023-08-06T03:40:48;98998.03;;;19.10;52.26
62548;BME280;48602;45.192;5.722;2023-08-06T03:43:13;99019.19;;;19.13;52.11
62548;BME280;48602;45.192;5.722;2023-08-06T03:45:40;99007.53;;;19.14;52.12
62548;BME280;48602;45.192;5.722;2023-08-06T03:48:05;99015.56;;;19.14;52.44
62548;BME280;48602;45.192;5.722;2023-08-06T03:50:31;99009.25;;;19.15;52.74
62548;BME280;48602;45.192;5.722;2023-08-06T03:52:56;99027.09;;;19.15;52.52
62548;BME280;48602;45.192;5.722;2023-08-06T03:55:22;99007.75;;;19.11;52.98
62548;BME280;48602;45.192;5.722;2023-08-06T03:57:47;99003.66;;;19.07;53.14
62548;BME280;48602;45.192;5.722;2023-08-06T04:00:13;99021.63;;;19.05;53.35
62548;BME280;48602;45.192;5.722;2023-08-06T04:02:38;99024.75;;;18.99;53.45
62548;BME280;48602;45.192;5.722;2023-08-06T04:05:04;99047.56;;;18.92;53.41
62548;BME280;48602;45.192;5.722;2023-08-06T04:07:29;99046.31;;;18.85;53.67
62548;BME280;48602;45.192;5.722;2023-08-06T04:09:57;99052.00;;;18.80;53.35
62548;BME280;48602;45.192;5.722;2023-08-06T04:12:23;99053.22;;;18.76;53.72
62548;BME280;48602;45.192;5.722;2023-08-06T04:14:50;99058.13;;;18.70;54.44
62548;BME280;48602;45.192;5.722;2023-08-06T04:17:15;99063.94;;;18.64;54.52
62548;BME280;48602;45.192;5.722;2023-08-06T04:19:40;99054.31;;;18.61;55.07
62548;BME280;48602;45.192;5.722;2023-08-06T04:22:06;99055.63;;;18.56;54.62
62548;BME280;48602;45.192;5.722;2023-08-06T04:24:32;99049.75;;;18.51;55.42
62548;BME280;48602;45.192;5.722;2023-08-06T04:26:57;99040.38;;;18.45;55.58
62548;BME280;48602;45.192;5.722;2023-08-06T04:29:22;99047.78;;;18.41;55.48
62548;BME280;48602;45.192;5.722;2023-08-06T04:31:48;99063.03;;;18.39;55.55
62548;BME280;48602;45.192;5.722;2023-08-06T04:34:13;99058.03;;;18.35;55.50
62548;BME280;48602;45.192;5.722;2023-08-06T04:36:38;99074.16;;;18.33;55.54
62548;BME280;48602;45.192;5.722;2023-08-06T04:39:04;99056.53;;;18.31;55.34
62548;BME280;48602;45.192;5.722;2023-08-06T04:41:29;99097.53;;;18.30;55.28
62548;BME280;48602;45.192;5.722;2023-08-06T04:43:56;99078.25;;;18.26;55.42
62548;BME280;48602;45.192;5.722;2023-08-06T04:46:22;99074.09;;;18.22;55.66
62548;BME280;48602;45.192;5.722;2023-08-06T04:48:47;99075.91;;;18.22;55.53
62548;BME280;48602;45.192;5.722;2023-08-06T04:51:12;99064.47;;;18.20;55.29
62548;BME280;48602;45.192;5.722;2023-08-06T04:53:38;99075.25;;;18.18;55.20
62548;BME280;48602;45.192;5.722;2023-08-06T04:56:03;99078.91;;;18.17;55.31
62548;BME280;48602;45.192;5.722;2023-08-06T04:58:29;99076.44;;;18.14;55.31
62548;BME280;48602;45.192;5.722;2023-08-06T05:00:54;99089.88;;;18.12;55.56
62548;BME280;48602;45.192;5.722;2023-08-06T05:03:19;99096.28;;;18.10;55.73
62548;BME280;48602;45.192;5.722;2023-08-06T05:05:46;99078.59;;;18.09;55.95
62548;BME280;48602;45.192;5.722;2023-08-06T05:08:14;99070.81;;;18.06;56.08
62548;BME280;48602;45.192;5.722;2023-08-06T05:10:46;99093.97;;;18.05;55.75
62548;BME280;48602;45.192;5.722;2023-08-06T05:13:12;99074.44;;;18.05;55.81
62548;BME280;48602;45.192;5.722;2023-08-06T05:15:37;99092.47;;;18.01;55.40
62548;BME280;48602;45.192;5.722;2023-08-06T05:18:05;99082.56;;;18.03;55.75
62548;BME280;48602;45.192;5.722;2023-08-06T05:20:30;99083.72;;;17.99;56.01
62548;BME280;48602;45.192;5.722;2023-08-06T05:22:55;99080.22;;;17.99;56.04
62548;BME280;48602;45.192;5.722;2023-08-06T05:25:21;99101.66;;;17.97;55.97
62548;BME280;48602;45.192;5.722;2023-08-06T05:27:46;99092.69;;;17.98;55.61
62548;BME280;48602;45.192;5.722;2023-08-06T05:30:12;99081.28;;;17.96;55.32
62548;BME280;48602;45.192;5.722;2023-08-06T05:32:37;99084.16;;;17.93;56.29
62548;BME280;48602;45.192;5.722;2023-08-06T05:35:03;99066.47;;;17.92;55.83
62548;BME280;48602;45.192;5.722;2023-08-06T05:37:28;99067.44;;;17.91;55.74
62548;BME280;48602;45.192;5.722;2023-08-06T05:39:53;99090.56;;;17.91;55.69
62548;BME280;48602;45.192;5.722;2023-08-06T05:42:19;99080.75;;;17.91;55.58
62548;BME280;48602;45.192;5.722;2023-08-06T05:44:44;99091.44;;;17.91;55.21
62548;BME280;48602;45.192;5.722;2023-08-06T05:47:09;99094.97;;;17.92;55.62
62548;BME280;48602;45.192;5.722;2023-08-06T05:49:35;99107.44;;;17.91;55.27
62548;BME280;48602;45.192;5.722;2023-08-06T05:52:02;99108.50;;;17.89;54.67
62548;BME280;48602;45.192;5.722;2023-08-06T05:54:31;99114.69;;;17.89;55.11
62548;BME280;48602;45.192;5.722;2023-08-06T05:56:56;99146.59;;;17.91;55.47
62548;BME280;48602;45.192;5.722;2023-08-06T05:59:22;99141.47;;;17.88;54.70
62548;BME280;48602;45.192;5.722;2023-08-06T06:01:47;99138.69;;;17.89;55.30
62548;BME280;48602;45.192;5.722;2023-08-06T06:04:12;99163.44;;;17.91;54.81
62548;BME280;48602;45.192;5.722;2023-08-06T06:06:38;99134.81;;;17.93;55.45
62548;BME280;48602;45.192;5.722;2023-08-06T06:09:03;99147.44;;;17.91;54.81
62548;BME280;48602;45.192;5.722;2023-08-06T06:11:28;99175.09;;;17.90;55.54
62548;BME280;48602;45.192;5.722;2023-08-06T06:13:54;99166.22;;;17.90;55.31
62548;BME280;48602;45.192;5.722;2023-08-06T06:16:19;99161.63;;;17.92;54.85
62548;BME280;48602;45.192;5.722;2023-08-06T06:18:45;99182.03;;;17.93;54.97
62548;BME280;48602;45.192;5.722;2023-08-06T06:21:10;99194.38;;;17.94;55.43
62548;BME280;48602;45.192;5.722;2023-08-06T06:23:36;99194.38;;;17.94;55.12
62548;BME280;48602;45.192;5.722;2023-08-06T06:26:01;99194.38;;;17.94;55.33
62548;BME280;48602;45.192;5.722;2023-08-06T06:28:27;99188.72;;;17.98;54.95
62548;BME280;48602;45.192;5.722;2023-08-06T06:30:52;99189.56;;;17.99;55.06
62548;BME280;48602;45.192;5.722;2023-08-06T06:33:17;99202.06;;;17.98;56.18
62548;BME280;48602;45.192;5.722;2023-08-06T06:35:43;99201.50;;;17.93;56.56
62548;BME280;48602;45.192;5.722;2023-08-06T06:38:08;99211.66;;;17.88;56.21
62548;BME280;48602;45.192;5.722;2023-08-06T06:40:33;99211.97;;;17.84;56.23
62548;BME280;48602;45.192;5.722;2023-08-06T06:42:59;99193.31;;;17.84;56.34
62548;BME280;48602;45.192;5.722;2023-08-06T06:45:24;99207.59;;;17.83;57.98
62548;BME280;48602;45.192;5.722;2023-08-06T06:47:49;99234.25;;;17.70;58.82
62548;BME280;48602;45.192;5.722;2023-08-06T06:50:15;99243.53;;;17.50;60.39
62548;BME280;48602;45.192;5.722;2023-08-06T06:52:41;99246.84;;;17.27;60.55
62548;BME280;48602;45.192;5.722;2023-08-06T06:55:06;99242.53;;;17.12;61.50
62548;BME280;48602;45.192;5.722;2023-08-06T06:57:32;99236.97;;;17.02;62.10
62548;BME280;48602;45.192;5.722;2023-08-06T06:59:57;99250.56;;;16.97;62.73
62548;BME280;48602;45.192;5.722;2023-08-06T07:02:22;99254.84;;;17.00;61.28
62548;BME280;48602;45.192;5.722;2023-08-06T07:04:49;99244.19;;;17.00;58.49
62548;BME280;48602;45.192;5.722;2023-08-06T07:07:15;99265.13;;;17.06;58.04
62548;BME280;48602;45.192;5.722;2023-08-06T07:09:40;99276.41;;;17.09;57.04
62548;BME280;48602;45.192;5.722;2023-08-06T07:12:06;99253.09;;;17.13;56.62
62548;BME280;48602;45.192;5.722;2023-08-06T07:14:31;99267.38;;;17.12;56.21
62548;BME280;48602;45.192;5.722;2023-08-06T07:16:57;99231.25;;;17.08;56.87
62548;BME280;48602;45.192;5.722;2023-08-06T07:19:23;99248.19;;;17.07;56.39
62548;BME280;48602;45.192;5.722;2023-08-06T07:21:48;99266.91;;;17.05;57.04
62548;BME280;48602;45.192;5.722;2023-08-06T07:24:14;99259.88;;;17.04;57.24
62548;BME280;48602;45.192;5.722;2023-08-06T07:26:39;99251.31;;;16.99;57.41
62548;BME280;48602;45.192;5.722;2023-08-06T07:29:04;99263.88;;;16.97;57.85
62548;BME280;48602;45.192;5.722;2023-08-06T07:31:30;99261.31;;;16.96;57.89
62548;BME280;48602;45.192;5.722;2023-08-06T07:33:55;99261.22;;;16.97;58.44
62548;BME280;48602;45.192;5.722;2023-08-06T07:36:21;99307.25;;;16.99;58.16
62548;BME280;48602;45.192;5.722;2023-08-06T07:38:46;99285.84;;;17.01;58.08
62548;BME280;48602;45.192;5.722;2023-08-06T07:41:13;99287.56;;;17.02;58.72
62548;BME280;48602;45.192;5.722;2023-08-06T07:43:39;99270.44;;;17.06;58.24
62548;BME280;48602;45.192;5.722;2023-08-06T07:46:04;99266.72;;;17.08;58.84
62548;BME280;48602;45.192;5.722;2023-08-06T07:48:30;99305.41;;;17.14;58.14
62548;BME280;48602;45.192;5.722;2023-08-06T07:50:56;99298.00;;;17.19;58.43
62548;BME280;48602;45.192;5.722;2023-08-06T07:53:22;99298.84;;;17.20;57.72
62548;BME280;48602;45.192;5.722;2023-08-06T07:55:51;99320.84;;;17.23;59.13
62548;BME280;48602;45.192;5.722;2023-08-06T07:58:18;99297.72;;;17.24;58.88
62548;BME280;48602;45.192;5.722;2023-08-06T08:00:44;99304.63;;;17.26;59.42
62548;BME280;48602;45.192;5.722;2023-08-06T08:03:14;99294.72;;;17.28;60.04
62548;BME280;48602;45.192;5.722;2023-08-06T08:05:40;99289.31;;;17.30;59.98
62548;BME280;48602;45.192;5.722;2023-08-06T08:08:06;99309.56;;;17.32;59.68
62548;BME280;48602;45.192;5.722;2023-08-06T08:10:32;99307.84;;;17.31;59.78
62548;BME280;48602;45.192;5.722;2023-08-06T08:12:58;99288.25;;;17.32;60.25
62548;BME280;48602;45.192;5.722;2023-08-06T08:15:24;99283.69;;;17.34;60.34
62548;BME280;48602;45.192;5.722;2023-08-06T08:17:51;99292.34;;;17.38;60.12
62548;BME280;48602;45.192;5.722;2023-08-06T08:20:17;99300.25;;;17.39;60.76
62548;BME280;48602;45.192;5.722;2023-08-06T08:22:43;99301.09;;;17.40;60.53
62548;BME280;48602;45.192;5.722;2023-08-06T08:25:08;99326.69;;;17.42;60.09
62548;BME280;48602;45.192;5.722;2023-08-06T08:27:34;99305.38;;;17.42;59.70
62548;BME280;48602;45.192;5.722;2023-08-06T08:29:59;99293.72;;;17.43;59.07
62548;BME280;48602;45.192;5.722;2023-08-06T08:32:24;99299.72;;;17.47;59.88
62548;BME280;48602;45.192;5.722;2023-08-06T08:34:50;99293.13;;;17.53;59.21
62548;BME280;48602;45.192;5.722;2023-08-06T08:37:15;99287.28;;;17.60;59.17
62548;BME280;48602;45.192;5.722;2023-08-06T08:39:41;99317.22;;;17.65;58.67
62548;BME280;48602;45.192;5.722;2023-08-06T08:42:06;99302.91;;;17.66;57.90
62548;BME280;48602;45.192;5.722;2023-08-06T08:44:32;99309.97;;;17.67;56.98
62548;BME280;48602;45.192;5.722;2023-08-06T08:46:59;99301.97;;;17.67;57.98
62548;BME280;48602;45.192;5.722;2023-08-06T08:49:26;99308.72;;;17.73;58.69
62548;BME280;48602;45.192;5.722;2023-08-06T08:51:53;99289.72;;;17.77;58.08
62548;BME280;48602;45.192;5.722;2023-08-06T08:54:22;99308.00;;;17.84;57.94
62548;BME280;48602;45.192;5.722;2023-08-06T08:56:48;99313.88;;;17.89;57.14
62548;BME280;48602;45.192;5.722;2023-08-06T08:59:13;99307.91;;;17.98;57.33
62548;BME280;48602;45.192;5.722;2023-08-06T09:01:39;99303.78;;;18.06;57.29
62548;BME280;48602;45.192;5.722;2023-08-06T09:04:08;99323.94;;;18.10;56.85
62548;BME280;48602;45.192;5.722;2023-08-06T09:06:36;99331.22;;;18.08;56.73
62548;BME280;48602;45.192;5.722;2023-08-06T09:09:09;99330.09;;;17.98;57.63
62548;BME280;48602;45.192;5.722;2023-08-06T09:11:42;99322.19;;;17.84;58.07
62548;BME280;48602;45.192;5.722;2023-08-06T09:14:08;99305.72;;;17.77;58.47
62548;BME280;48602;45.192;5.722;2023-08-06T09:16:37;99330.34;;;17.68;59.21
62548;BME280;48602;45.192;5.722;2023-08-06T09:19:10;99318.31;;;17.61;59.79
62548;BME280;48602;45.192;5.722;2023-08-06T09:21:39;99348.84;;;17.57;59.90
62548;BME280;48602;45.192;5.722;2023-08-06T09:24:09;99328.84;;;17.50;60.19
62548;BME280;48602;45.192;5.722;2023-08-06T09:26:37;99320.84;;;17.50;60.24
62548;BME280;48602;45.192;5.722;2023-08-06T09:29:08;99321.69;;;17.51;60.25
62548;BME280;48602;45.192;5.722;2023-08-06T09:31:45;99323.22;;;17.55;59.86
62548;BME280;48602;45.192;5.722;2023-08-06T09:34:15;99316.84;;;17.57;59.70
62548;BME280;48602;45.192;5.722;2023-08-06T09:36:48;99318.81;;;17.68;59.67
62548;BME280;48602;45.192;5.722;2023-08-06T09:39:18;99309.25;;;17.78;58.72
62548;BME280;48602;45.192;5.722;2023-08-06T09:41:45;99313.56;;;17.93;58.08
62548;BME280;48602;45.192;5.722;2023-08-06T09:44:18;99306.97;;;18.11;56.83
62548;BME280;48602;45.192;5.722;2023-08-06T09:46:53;99313.63;;;18.31;56.66
62548;BME280;48602;45.192;5.722;2023-08-06T09:49:21;99317.28;;;18.43;57.11
62548;BME280;48602;45.192;5.722;2023-08-06T09:51:47;99298.59;;;18.56;56.51
62548;BME280;48602;45.192;5.722;2023-08-06T09:54:17;99304.69;;;18.70;56.31
62548;BME280;48602;45.192;5.722;2023-08-06T09:56:44;99315.38;;;18.83;54.75
62548;BME280;48602;45.192;5.722;2023-08-06T09:59:09;99309.81;;;18.86;55.22
62548;BME280;48602;45.192;5.722;2023-08-06T10:01:36;99304.56;;;18.85;54.88
62548;BME280;48602;45.192;5.722;2023-08-06T10:04:03;99308.22;;;18.83;53.31
62548;BME280;48602;45.192;5.722;2023-08-06T10:06:31;99310.13;;;18.81;52.89
62548;BME280;48602;45.192;5.722;2023-08-06T10:08:56;99300.50;;;18.79;53.78
62548;BME280;48602;45.192;5.722;2023-08-06T10:11:23;99314.63;;;18.81;53.42
62548;BME280;48602;45.192;5.722;2023-08-06T10:13:58;99308.22;;;18.83;52.84
62548;BME280;48602;45.192;5.722;2023-08-06T10:16:24;99312.38;;;18.88;52.60
62548;BME280;48602;45.192;5.722;2023-08-06T10:18:50;99333.66;;;18.89;52.70
62548;BME280;48602;45.192;5.722;2023-08-06T10:21:16;99305.00;;;18.91;52.00
62548;BME280;48602;45.192;5.722;2023-08-06T10:23:41;99329.91;;;18.92;52.23
62548;BME280;48602;45.192;5.722;2023-08-06T10:26:07;99333.66;;;18.89;53.51
62548;BME280;48602;45.192;5.722;2023-08-06T10:28:39;99351.38;;;18.90;53.03
62548;BME280;48602;45.192;5.722;2023-08-06T10:31:05;99334.72;;;18.87;53.08
62548;BME280;48602;45.192;5.722;2023-08-06T10:33:42;99334.06;;;18.83;53.60
62548;BME280;48602;45.192;5.722;2023-08-06T10:36:09;99364.41;;;18.82;53.86
62548;BME280;48602;45.192;5.722;2023-08-06T10:38:35;99354.91;;;18.78;53.39
62548;BME280;48602;45.192;5.722;2023-08-06T10:41:03;99356.00;;;18.75;53.18
62548;BME280;48602;45.192;5.722;2023-08-06T10:43:36;99332.91;;;18.74;53.46
62548;BME280;48602;45.192;5.722;2023-08-06T10:46:20;99351.38;;;18.77;52.65
62548;BME280;48602;45.192;5.722;2023-08-06T10:48:46;99343.03;;;18.82;52.43
62548;BME280;48602;45.192;5.722;2023-08-06T10:51:12;99347.00;;;18.89;51.69
62548;BME280;48602;45.192;5.722;2023-08-06T10:53:42;99349.22;;;18.95;52.28
62548;BME280;48602;45.192;5.722;2023-08-06T10:56:14;99344.63;;;18.97;52.11
62548;BME280;48602;45.192;5.722;2023-08-06T10:58:41;99355.41;;;18.96;51.76
62548;BME280;48602;45.192;5.722;2023-08-06T11:01:06;99340.88;;;19.00;51.80
62548;BME280;48602;45.192;5.722;2023-08-06T11:03:33;99346.03;;;19.03;50.43
62548;BME280;48602;45.192;5.722;2023-08-06T11:05:59;99328.16;;;19.03;51.18
62548;BME280;48602;45.192;5.722;2023-08-06T11:08:28;99317.38;;;19.05;50.62
62548;BME280;48602;45.192;5.722;2023-08-06T11:10:55;99347.84;;;19.02;51.31
62548;BME280;48602;45.192;5.722;2023-08-06T11:13:32;99314.28;;;18.98;51.59
62548;BME280;48602;45.192;5.722;2023-08-06T11:15:58;99313.09;;;19.02;51.51
62548;BME280;48602;45.192;5.722;2023-08-06T11:18:23;99301.03;;;19.09;50.77
62548;BME280;48602;45.192;5.722;2023-08-06T11:20:49;99291.78;;;19.13;50.91
62548;BME280;48602;45.192;5.722;2023-08-06T11:23:14;99298.41;;;19.21;50.58
62548;BME280;48602;45.192;5.722;2023-08-06T11:25:46;99295.41;;;19.25;50.99
62548;BME280;48602;45.192;5.722;2023-08-06T11:28:12;99306.22;;;19.24;50.88
62548;BME280;48602;45.192;5.722;2023-08-06T11:30:38;99302.16;;;19.18;50.55
62548;BME280;48602;45.192;5.722;2023-08-06T11:33:03;99307.28;;;19.21;51.02
62548;BME280;48602;45.192;5.722;2023-08-06T11:35:28;99280.84;;;19.29;50.65
62548;BME280;48602;45.192;5.722;2023-08-06T11:37:54;99284.44;;;19.41;51.20
62548;BME280;48602;45.192;5.722;2023-08-06T11:40:20;99288.69;;;19.56;50.28
62548;BME280;48602;45.192;5.722;2023-08-06T11:42:46;99296.88;;;19.66;49.42
62548;BME280;48602;45.192;5.722;2023-08-06T11:45:12;99289.94;;;19.63;49.27
62548;BME280;48602;45.192;5.722;2023-08-06T11:47:38;99305.88;;;19.65;49.36
62548;BME280;48602;45.192;5.722;2023-08-06T11:50:07;99297.72;;;19.66;49.33
62548;BME280;48602;45.192;5.722;2023-08-06T11:52:33;99290.44;;;19.68;48.32
62548;BME280;48602;45.192;5.722;2023-08-06T11:57:33;99274.94;;;19.84;48.01
62548;BME280;48602;45.192;5.722;2023-08-06T12:00:07;99288.34;;;19.96;47.55
62548;BME280;48602;45.192;5.722;2023-08-06T12:02:33;99300.44;;;20.01;47.94
62548;BME280;48602;45.192;5.722;2023-08-06T12:05:10;99315.53;;;20.02;48.08
62548;BME280;48602;45.192;5.722;2023-08-06T12:07:43;99319.28;;;20.00;48.19
62548;BME280;48602;45.192;5.722;2023-08-06T12:10:09;99350.16;;;19.93;48.91
62548;BME280;48602;45.192;5.722;2023-08-06T12:12:35;99308.66;;;19.87;48.29
62548;BME280;48602;45.192;5.722;2023-08-06T12:15:01;99319.81;;;19.81;48.95
62548;BME280;48602;45.192;5.722;2023-08-06T12:17:27;99316.34;;;19.92;49.10
62548;BME280;48602;45.192;5.722;2023-08-06T12:19:52;99290.91;;;19.97;48.81
62548;BME280;48602;45.192;5.722;2023-08-06T12:22:18;99294.50;;;20.09;49.11
62548;BME280;48602;45.192;5.722;2023-08-06T12:24:45;99311.56;;;20.19;48.67
62548;BME280;48602;45.192;5.722;2023-08-06T12:27:11;99306.47;;;20.27;48.07
62548;BME280;48602;45.192;5.722;2023-08-06T12:29:40;99299.25;;;20.40;48.25
62548;BME280;48602;45.192;5.722;2023-08-06T12:32:06;99348.19;;;20.53;47.29
62548;BME280;48602;45.192;5.722;2023-08-06T12:34:32;99306.56;;;20.61;46.98
62548;BME280;48602;45.192;5.722;2023-08-06T12:36:57;99310.06;;;20.61;46.90
62548;BME280;48602;45.192;5.722;2023-08-06T12:39:23;99312.16;;;20.58;46.48
62548;BME280;48602;45.192;5.722;2023-08-06T12:41:49;99295.97;;;20.59;45.94
62548;BME280;48602;45.192;5.722;2023-08-06T12:44:14;99312.00;;;20.48;45.65
62548;BME280;48602;45.192;5.722;2023-08-06T12:46:39;99316.28;;;20.50;45.69
62548;BME280;48602;45.192;5.722;2023-08-06T12:49:05;99347.34;;;20.53;45.88
62548;BME280;48602;45.192;5.722;2023-08-06T12:51:31;99347.81;;;20.47;45.67
62548;BME280;48602;45.192;5.722;2023-08-06T12:53:56;99321.50;;;20.41;46.65
62548;BME280;48602;45.192;5.722;2023-08-06T12:56:22;99330.09;;;20.33;46.95
62548;BME280;48602;45.192;5.722;2023-08-06T12:58:47;99314.13;;;20.20;47.31
62548;BME280;48602;45.192;5.722;2023-08-06T13:01:12;99368.00;;;20.16;47.08
62548;BME280;48602;45.192;5.722;2023-08-06T13:03:38;99330.38;;;20.06;47.69
62548;BME280;48602;45.192;5.722;2023-08-06T13:06:03;99333.50;;;20.00;47.38